Jenny — WDB7954 — position and weather

sailwx.info

Track history (hours):
 
Tides and Currents Weather Stations Pressure Air Temp Water Temp Dewpoint Dewpoint Depression Visibility Wind Speed Wind Dir Waves Ship Positions

Jenny

Owner: Wilmington Tug, Inc., New Castle, DE. More information available from US FCC via Universal Licensing System and Coast Guard Vessel Documentation Center.

Last reported at 2018-May-22 20:02 UTC. Time now 2018-May-23 22:18 UTC.
Position N 39°43' W 075°31'.

Length 12 m; draft 1.1 m.

Type: Passenger vessel. MMSI: 366950410.

Date/timePositionNaut miles runAvg speedWind from/ knotsBaromVisibWave heightAir tempDewpointWater temp
2018-May-22 20:02N 39°43' W 075°31'0 0.4
2018-May-22 20:00N 39°43' W 075°31'816.1
2018-May-22 19:31N 39°36' W 075°36'4 8.2
2018-May-22 19:00N 39°33' W 075°33'714.9
2018-May-22 18:31N 39°40' W 075°32'3 0.2
2018-May-22 02:00N 39°43' W 075°31'816.0
2018-May-22 01:30N 39°35' W 075°33'3 6.0
2018-May-22 01:01N 39°34' W 075°30'3 5.0
2018-May-22 00:30N 39°33' W 075°32'0 1.0
2018-May-22 00:00N 39°34' W 075°33'4 8.8
2018-May-21 23:30N 39°38' W 075°34'6 0.4
2018-May-21 09:15N 39°43' W 075°31'0 0.3
2018-May-21 09:00N 39°43' W 075°31'0 0.0
2018-May-21 00:20N 39°43' W 075°31'1 2.4
2018-May-21 00:00N 39°42' W 075°30'1 1.5
2018-May-20 23:30N 39°43' W 075°31'0 0.0
2018-May-20 23:00N 39°43' W 075°31'0 0.0
2018-May-20 22:30N 39°43' W 075°31'0 0.0
2018-May-20 22:00N 39°43' W 075°31'714.4
2018-May-20 21:30N 39°36' W 075°34'7 0.9
2018-May-20 14:02N 39°43' W 075°31'017.5
2018-May-20 14:00N 39°42' W 075°31'816.1
2018-May-20 13:30N 39°34' W 075°33'5 9.1
2018-May-20 13:01N 39°39' W 075°33'4 0.2
2018-May-19 15:36N 39°43' W 075°31'0 1.0
2018-May-19 15:30N 39°43' W 075°31'0 0.0
2018-May-19 12:26N 39°43' W 075°31'0 0.2
2018-May-19 12:00N 39°43' W 075°31'0 0.0
2018-May-19 03:47N 39°43' W 075°31'1 1.8
2018-May-19 03:30N 39°43' W 075°30'  
2018-May-15 18:14N 39°43' W 075°31'  
2018-May-12 20:05N 39°43' W 075°31'  
Track history (hours):
 
Tides and Currents Weather Stations Pressure Air Temp Water Temp Dewpoint Dewpoint Depression Visibility Wind Speed Wind Dir Waves Ship Positions

Jenny

Owner: Wilmington Tug, Inc., New Castle, DE. More information available from US FCC via Universal Licensing System and Coast Guard Vessel Documentation Center.

Last reported at 2018-May-22 20:02 UTC. Time now 2018-May-23 22:18 UTC.
Position N 39°43' W 075°31'.

Length 12 m; draft 1.1 m.

Type: Passenger vessel. MMSI: 366950410.

Date/timePositionNaut miles runAvg speedWind from/ knotsBaromVisibWave heightAir tempDewpointWater temp
2018-May-22 20:02N 39°43' W 075°31'0 0.4
2018-May-22 20:00N 39°43' W 075°31'816.1
2018-May-22 19:31N 39°36' W 075°36'4 8.2
2018-May-22 19:00N 39°33' W 075°33'714.9
2018-May-22 18:31N 39°40' W 075°32'3 0.2
2018-May-22 02:00N 39°43' W 075°31'816.0
2018-May-22 01:30N 39°35' W 075°33'3 6.0
2018-May-22 01:01N 39°34' W 075°30'3 5.0
2018-May-22 00:30N 39°33' W 075°32'0 1.0
2018-May-22 00:00N 39°34' W 075°33'4 8.8
2018-May-21 23:30N 39°38' W 075°34'6 0.4
2018-May-21 09:15N 39°43' W 075°31'0 0.3
2018-May-21 09:00N 39°43' W 075°31'0 0.0
2018-May-21 00:20N 39°43' W 075°31'1 2.4
2018-May-21 00:00N 39°42' W 075°30'1 1.5
2018-May-20 23:30N 39°43' W 075°31'0 0.0
2018-May-20 23:00N 39°43' W 075°31'0 0.0
2018-May-20 22:30N 39°43' W 075°31'0 0.0
2018-May-20 22:00N 39°43' W 075°31'714.4
2018-May-20 21:30N 39°36' W 075°34'7 0.9
2018-May-20 14:02N 39°43' W 075°31'017.5
2018-May-20 14:00N 39°42' W 075°31'816.1
2018-May-20 13:30N 39°34' W 075°33'5 9.1
2018-May-20 13:01N 39°39' W 075°33'4 0.2
2018-May-19 15:36N 39°43' W 075°31'0 1.0
2018-May-19 15:30N 39°43' W 075°31'0 0.0
2018-May-19 12:26N 39°43' W 075°31'0 0.2
2018-May-19 12:00N 39°43' W 075°31'0 0.0
2018-May-19 03:47N 39°43' W 075°31'1 1.8
2018-May-19 03:30N 39°43' W 075°30'  
2018-May-15 18:14N 39°43' W 075°31'  
2018-May-12 20:05N 39°43' W 075°31'  

Dump ship's entire track history